Main page
METAR-TAF:

METAR-TAF

Airports :

St Athan, Wales

MOD St Athan

latitude: 51-24N, longitude: 003-26W, elevation: 50 m

Current weather observation

The report was made 1 hour and 19 minutes ago, at 00:50 UTC
Wind 7 kt from the Northeast
Temperature 13°C
Humidity 88%
Pressure 996 hPa
Visibility 10 km or more

METAR: EGDX 290050Z AUTO 05007KT 9999 BKN012/// BKN027/// 13/11 Q0996

Time: 03:09 (02:09 UTC)

Forecast

The report was made 12 hours and 44 minutes ago, at 13:25 UTC
Forecast valid from 28 at 15 UTC to 28 at 18 UTC
Wind 8 kt from the Northeast
Visibility 10 km or more
Broken clouds at a height of 1000 ft
Temporary
from 28 at 15 UTC to 28 at 18 UTC
Visibility: 6000 m
light rain
Probability 30% :
Temporary
from 28 at 15 UTC to 28 at 18 UTC
Broken clouds at a height of 1600 ft

TAF: EGDX 281325Z 2815/2818 05008KT 9999 BKN010 TEMPO 2815/2818 6000 -RA PROB30 TEMPO 2815/2818 BKN016

Weather observations and forecasts of more than 4000 airports (METAR and TAF reports).

The available stations are represented by yellow and red dots on the map.

Hover mouse over dot to see the name of the station.

Then click to see weather observations and forecasts.

To change the map : click on the green buttons with a black cross to zoom in, on the green button with a dash to zoom out, or on the green arrows for adjacent maps.


METAR-TAF: